sensor_id;sensor_type;location;lat;lon;timestamp;P1;durP1;ratioP1;P2;durP2;ratioP2
12224;SDS011;6175;50.956;11.064;2022-12-05T00:00:26;22.93;;;14.50;;
12224;SDS011;6175;50.956;11.064;2022-12-05T00:02:54;22.77;;;14.90;;
12224;SDS011;6175;50.956;11.064;2022-12-05T00:05:22;21.53;;;15.20;;
12224;SDS011;6175;50.956;11.064;2022-12-05T00:07:49;20.07;;;14.30;;
12224;SDS011;6175;50.956;11.064;2022-12-05T00:10:16;19.87;;;13.60;;
12224;SDS011;6175;50.956;11.064;2022-12-05T00:12:43;19.83;;;12.90;;
12224;SDS011;6175;50.956;11.064;2022-12-05T00:15:11;20.00;;;12.03;;
12224;SDS011;6175;50.956;11.064;2022-12-05T00:17:38;17.73;;;12.20;;
12224;SDS011;6175;50.956;11.064;2022-12-05T00:20:08;17.87;;;11.77;;
12224;SDS011;6175;50.956;11.064;2022-12-05T00:22:35;18.50;;;12.43;;
12224;SDS011;6175;50.956;11.064;2022-12-05T00:25:03;22.60;;;14.83;;
12224;SDS011;6175;50.956;11.064;2022-12-05T00:27:32;27.73;;;16.53;;
12224;SDS011;6175;50.956;11.064;2022-12-05T00:29:59;28.83;;;17.07;;
12224;SDS011;6175;50.956;11.064;2022-12-05T00:32:26;27.50;;;16.93;;
12224;SDS011;6175;50.956;11.064;2022-12-05T00:34:54;26.57;;;16.63;;
12224;SDS011;6175;50.956;11.064;2022-12-05T00:37:23;26.97;;;15.93;;
12224;SDS011;6175;50.956;11.064;2022-12-05T00:39:50;24.90;;;15.73;;
12224;SDS011;6175;50.956;11.064;2022-12-05T00:42:17;24.57;;;16.03;;
12224;SDS011;6175;50.956;11.064;2022-12-05T00:44:44;27.20;;;17.23;;
12224;SDS011;6175;50.956;11.064;2022-12-05T00:47:11;23.73;;;16.27;;
12224;SDS011;6175;50.956;11.064;2022-12-05T00:49:38;23.50;;;15.23;;
12224;SDS011;6175;50.956;11.064;2022-12-05T00:52:05;25.83;;;16.60;;
12224;SDS011;6175;50.956;11.064;2022-12-05T00:54:34;25.77;;;17.03;;
12224;SDS011;6175;50.956;11.064;2022-12-05T00:57:01;24.03;;;15.67;;
12224;SDS011;6175;50.956;11.064;2022-12-05T00:59:28;23.30;;;14.83;;
12224;SDS011;6175;50.956;11.064;2022-12-05T01:01:55;25.50;;;15.27;;
12224;SDS011;6175;50.956;11.064;2022-12-05T01:04:23;21.10;;;14.07;;
12224;SDS011;6175;50.956;11.064;2022-12-05T01:06:52;19.30;;;12.53;;
12224;SDS011;6175;50.956;11.064;2022-12-05T01:09:20;21.17;;;13.40;;
12224;SDS011;6175;50.956;11.064;2022-12-05T01:11:49;18.97;;;13.60;;
12224;SDS011;6175;50.956;11.064;2022-12-05T01:14:18;21.33;;;13.93;;
12224;SDS011;6175;50.956;11.064;2022-12-05T01:16:47;22.30;;;14.40;;
12224;SDS011;6175;50.956;11.064;2022-12-05T01:19:16;19.70;;;13.40;;
12224;SDS011;6175;50.956;11.064;2022-12-05T01:21:44;23.80;;;14.83;;
12224;SDS011;6175;50.956;11.064;2022-12-05T01:24:12;26.47;;;15.83;;
12224;SDS011;6175;50.956;11.064;2022-12-05T01:26:39;23.57;;;15.87;;
12224;SDS011;6175;50.956;11.064;2022-12-05T01:29:09;21.07;;;13.90;;
12224;SDS011;6175;50.956;11.064;2022-12-05T01:31:37;21.90;;;13.93;;
12224;SDS011;6175;50.956;11.064;2022-12-05T01:34:06;21.23;;;14.33;;
12224;SDS011;6175;50.956;11.064;2022-12-05T01:36:35;22.00;;;14.13;;
12224;SDS011;6175;50.956;11.064;2022-12-05T01:39:03;23.70;;;14.83;;
12224;SDS011;6175;50.956;11.064;2022-12-05T01:41:31;21.70;;;13.83;;
12224;SDS011;6175;50.956;11.064;2022-12-05T01:44:01;19.30;;;13.23;;
12224;SDS011;6175;50.956;11.064;2022-12-05T01:46:33;17.37;;;12.27;;
12224;SDS011;6175;50.956;11.064;2022-12-05T01:49:02;18.40;;;12.87;;
12224;SDS011;6175;50.956;11.064;2022-12-05T01:51:33;18.80;;;12.60;;
12224;SDS011;6175;50.956;11.064;2022-12-05T01:54:03;17.03;;;11.93;;
12224;SDS011;6175;50.956;11.064;2022-12-05T01:56:31;17.10;;;12.20;;
12224;SDS011;6175;50.956;11.064;2022-12-05T01:58:58;16.63;;;11.10;;
12224;SDS011;6175;50.956;11.064;2022-12-05T02:01:27;16.53;;;11.20;;
12224;SDS011;6175;50.956;11.064;2022-12-05T02:03:56;19.03;;;12.93;;
12224;SDS011;6175;50.956;11.064;2022-12-05T02:06:25;15.93;;;11.77;;
12224;SDS011;6175;50.956;11.064;2022-12-05T02:08:52;16.60;;;12.43;;
12224;SDS011;6175;50.956;11.064;2022-12-05T02:11:20;15.87;;;11.73;;
12224;SDS011;6175;50.956;11.064;2022-12-05T02:13:55;16.50;;;11.20;;
12224;SDS011;6175;50.956;11.064;2022-12-05T02:16:42;14.23;;;10.60;;
12224;SDS011;6175;50.956;11.064;2022-12-05T02:22:33;15.43;;;11.37;;
12224;SDS011;6175;50.956;11.064;2022-12-05T02:25:21;12.20;;;9.67;;
12224;SDS011;6175;50.956;11.064;2022-12-05T02:28:12;16.27;;;11.50;;
12224;SDS011;6175;50.956;11.064;2022-12-05T02:30:50;18.73;;;13.00;;
12224;SDS011;6175;50.956;11.064;2022-12-05T02:33:22;16.57;;;11.67;;
12224;SDS011;6175;50.956;11.064;2022-12-05T02:35:59;16.90;;;12.20;;
12224;SDS011;6175;50.956;11.064;2022-12-05T02:38:32;17.23;;;12.43;;
12224;SDS011;6175;50.956;11.064;2022-12-05T02:41:07;20.47;;;13.43;;
12224;SDS011;6175;50.956;11.064;2022-12-05T02:43:40;16.10;;;12.17;;
12224;SDS011;6175;50.956;11.064;2022-12-05T02:46:13;15.47;;;10.77;;
12224;SDS011;6175;50.956;11.064;2022-12-05T02:48:44;17.13;;;11.47;;
12224;SDS011;6175;50.956;11.064;2022-12-05T02:51:13;18.67;;;11.63;;
12224;SDS011;6175;50.956;11.064;2022-12-05T02:53:49;16.03;;;11.00;;
12224;SDS011;6175;50.956;11.064;2022-12-05T02:56:17;14.93;;;10.37;;
12224;SDS011;6175;50.956;11.064;2022-12-05T02:58:47;16.30;;;11.43;;
12224;SDS011;6175;50.956;11.064;2022-12-05T03:01:19;13.97;;;10.27;;
12224;SDS011;6175;50.956;11.064;2022-12-05T03:03:49;13.53;;;9.43;;
12224;SDS011;6175;50.956;11.064;2022-12-05T03:06:16;14.60;;;11.07;;
12224;SDS011;6175;50.956;11.064;2022-12-05T03:08:47;14.43;;;9.80;;
12224;SDS011;6175;50.956;11.064;2022-12-05T03:11:17;13.80;;;10.50;;
12224;SDS011;6175;50.956;11.064;2022-12-05T03:13:45;13.43;;;9.63;;
12224;SDS011;6175;50.956;11.064;2022-12-05T03:16:15;13.57;;;9.80;;
12224;SDS011;6175;50.956;11.064;2022-12-05T03:18:47;12.40;;;9.80;;
12224;SDS011;6175;50.956;11.064;2022-12-05T03:21:20;18.60;;;12.40;;
12224;SDS011;6175;50.956;11.064;2022-12-05T03:23:55;17.33;;;11.43;;
12224;SDS011;6175;50.956;11.064;2022-12-05T03:26:30;15.90;;;11.53;;
12224;SDS011;6175;50.956;11.064;2022-12-05T03:29:04;16.00;;;11.10;;
12224;SDS011;6175;50.956;11.064;2022-12-05T03:31:45;16.03;;;11.10;;
12224;SDS011;6175;50.956;11.064;2022-12-05T03:34:21;15.07;;;11.00;;
12224;SDS011;6175;50.956;11.064;2022-12-05T03:36:56;14.57;;;10.77;;
12224;SDS011;6175;50.956;11.064;2022-12-05T03:39:31;11.77;;;9.43;;
12224;SDS011;6175;50.956;11.064;2022-12-05T03:42:02;13.47;;;9.40;;
12224;SDS011;6175;50.956;11.064;2022-12-05T03:44:35;12.30;;;9.13;;
12224;SDS011;6175;50.956;11.064;2022-12-05T03:47:11;15.97;;;10.87;;
12224;SDS011;6175;50.956;11.064;2022-12-05T03:49:44;18.37;;;13.53;;
12224;SDS011;6175;50.956;11.064;2022-12-05T03:52:15;23.17;;;14.60;;
12224;SDS011;6175;50.956;11.064;2022-12-05T03:54:48;19.53;;;13.47;;
12224;SDS011;6175;50.956;11.064;2022-12-05T03:57:19;19.83;;;14.03;;
12224;SDS011;6175;50.956;11.064;2022-12-05T03:59:51;17.87;;;12.17;;
12224;SDS011;6175;50.956;11.064;2022-12-05T04:02:25;15.83;;;11.93;;
12224;SDS011;6175;50.956;11.064;2022-12-05T04:04:58;17.10;;;11.47;;
12224;SDS011;6175;50.956;11.064;2022-12-05T04:07:29;15.60;;;10.93;;
12224;SDS011;6175;50.956;11.064;2022-12-05T04:10:00;14.10;;;11.00;;
12224;SDS011;6175;50.956;11.064;2022-12-05T04:12:31;14.37;;;10.10;;
12224;SDS011;6175;50.956;11.064;2022-12-05T04:15:03;16.63;;;11.53;;
12224;SDS011;6175;50.956;11.064;2022-12-05T04:17:33;16.57;;;10.57;;
12224;SDS011;6175;50.956;11.064;2022-12-05T04:20:08;14.83;;;10.57;;
12224;SDS011;6175;50.956;11.064;2022-12-05T04:22:56;11.37;;;9.80;;
12224;SDS011;6175;50.956;11.064;2022-12-05T04:25:23;14.70;;;10.63;;
12224;SDS011;6175;50.956;11.064;2022-12-05T04:27:59;14.20;;;9.80;;
12224;SDS011;6175;50.956;11.064;2022-12-05T04:30:36;13.73;;;10.50;;
12224;SDS011;6175;50.956;11.064;2022-12-05T04:33:07;14.20;;;10.03;;
12224;SDS011;6175;50.956;11.064;2022-12-05T04:35:39;13.43;;;9.97;;
12224;SDS011;6175;50.956;11.064;2022-12-05T04:38:12;14.27;;;10.53;;
12224;SDS011;6175;50.956;11.064;2022-12-05T04:40:45;15.13;;;10.27;;
12224;SDS011;6175;50.956;11.064;2022-12-05T04:43:17;15.13;;;11.03;;
12224;SDS011;6175;50.956;11.064;2022-12-05T04:45:45;15.73;;;10.63;;
12224;SDS011;6175;50.956;11.064;2022-12-05T04:48:15;14.73;;;10.63;;
12224;SDS011;6175;50.956;11.064;2022-12-05T04:50:45;16.40;;;11.23;;
12224;SDS011;6175;50.956;11.064;2022-12-05T04:53:14;17.30;;;13.30;;
12224;SDS011;6175;50.956;11.064;2022-12-05T04:55:43;22.67;;;14.13;;
12224;SDS011;6175;50.956;11.064;2022-12-05T04:58:19;18.20;;;12.40;;
12224;SDS011;6175;50.956;11.064;2022-12-05T05:00:49;18.63;;;12.20;;
12224;SDS011;6175;50.956;11.064;2022-12-05T05:03:22;14.93;;;10.97;;
12224;SDS011;6175;50.956;11.064;2022-12-05T05:05:54;16.30;;;11.57;;
12224;SDS011;6175;50.956;11.064;2022-12-05T05:08:22;14.90;;;10.20;;
12224;SDS011;6175;50.956;11.064;2022-12-05T05:10:55;13.90;;;10.40;;
12224;SDS011;6175;50.956;11.064;2022-12-05T05:13:28;15.30;;;10.17;;
12224;SDS011;6175;50.956;11.064;2022-12-05T05:15:56;14.97;;;10.93;;
12224;SDS011;6175;50.956;11.064;2022-12-05T05:18:23;12.63;;;9.77;;
12224;SDS011;6175;50.956;11.064;2022-12-05T05:20:50;13.80;;;10.13;;
12224;SDS011;6175;50.956;11.064;2022-12-05T05:23:19;13.17;;;9.43;;
12224;SDS011;6175;50.956;11.064;2022-12-05T05:25:50;13.67;;;9.63;;
12224;SDS011;6175;50.956;11.064;2022-12-05T05:28:17;11.67;;;8.83;;
12224;SDS011;6175;50.956;11.064;2022-12-05T05:30:44;12.07;;;8.60;;
12224;SDS011;6175;50.956;11.064;2022-12-05T05:33:11;12.30;;;8.90;;
12224;SDS011;6175;50.956;11.064;2022-12-05T05:35:39;10.73;;;8.57;;
12224;SDS011;6175;50.956;11.064;2022-12-05T05:38:06;11.93;;;9.30;;
12224;SDS011;6175;50.956;11.064;2022-12-05T05:40:35;11.77;;;9.50;;
12224;SDS011;6175;50.956;11.064;2022-12-05T05:43:02;14.43;;;10.43;;
12224;SDS011;6175;50.956;11.064;2022-12-05T05:45:29;12.67;;;10.03;;
12224;SDS011;6175;50.956;11.064;2022-12-05T05:47:56;13.40;;;10.30;;
12224;SDS011;6175;50.956;11.064;2022-12-05T05:50:24;17.23;;;12.57;;
12224;SDS011;6175;50.956;11.064;2022-12-05T05:52:51;14.97;;;10.97;;
12224;SDS011;6175;50.956;11.064;2022-12-05T05:55:18;17.20;;;12.53;;
12224;SDS011;6175;50.956;11.064;2022-12-05T05:57:46;17.30;;;12.03;;
12224;SDS011;6175;50.956;11.064;2022-12-05T06:00:13;15.60;;;11.57;;
12224;SDS011;6175;50.956;11.064;2022-12-05T06:02:41;14.70;;;11.33;;
12224;SDS011;6175;50.956;11.064;2022-12-05T06:05:08;14.00;;;10.40;;
12224;SDS011;6175;50.956;11.064;2022-12-05T06:07:35;12.87;;;10.13;;
12224;SDS011;6175;50.956;11.064;2022-12-05T06:10:03;15.50;;;11.70;;
12224;SDS011;6175;50.956;11.064;2022-12-05T06:12:30;16.50;;;12.37;;
12224;SDS011;6175;50.956;11.064;2022-12-05T06:14:58;15.03;;;11.83;;
12224;SDS011;6175;50.956;11.064;2022-12-05T06:17:25;16.20;;;11.47;;
12224;SDS011;6175;50.956;11.064;2022-12-05T06:19:52;15.70;;;10.73;;
12224;SDS011;6175;50.956;11.064;2022-12-05T06:22:20;13.13;;;10.77;;
12224;SDS011;6175;50.956;11.064;2022-12-05T06:24:47;13.27;;;9.60;;
12224;SDS011;6175;50.956;11.064;2022-12-05T06:27:14;10.77;;;8.80;;
12224;SDS011;6175;50.956;11.064;2022-12-05T06:29:41;12.27;;;9.43;;
12224;SDS011;6175;50.956;11.064;2022-12-05T06:32:09;12.27;;;9.23;;
12224;SDS011;6175;50.956;11.064;2022-12-05T06:34:36;10.90;;;9.20;;
12224;SDS011;6175;50.956;11.064;2022-12-05T06:37:04;11.83;;;9.57;;
12224;SDS011;6175;50.956;11.064;2022-12-05T06:39:31;12.43;;;9.83;;
12224;SDS011;6175;50.956;11.064;2022-12-05T06:41:58;12.17;;;9.70;;
12224;SDS011;6175;50.956;11.064;2022-12-05T06:44:25;12.60;;;9.73;;
12224;SDS011;6175;50.956;11.064;2022-12-05T06:46:53;13.43;;;9.70;;
12224;SDS011;6175;50.956;11.064;2022-12-05T06:49:22;12.07;;;9.13;;
12224;SDS011;6175;50.956;11.064;2022-12-05T06:51:51;10.13;;;8.57;;
12224;SDS011;6175;50.956;11.064;2022-12-05T06:54:18;10.67;;;8.97;;
12224;SDS011;6175;50.956;11.064;2022-12-05T06:56:45;9.97;;;8.43;;
12224;SDS011;6175;50.956;11.064;2022-12-05T06:59:13;9.33;;;8.17;;
12224;SDS011;6175;50.956;11.064;2022-12-05T07:01:40;11.33;;;8.77;;
12224;SDS011;6175;50.956;11.064;2022-12-05T07:04:08;11.53;;;9.23;;
12224;SDS011;6175;50.956;11.064;2022-12-05T07:06:39;10.63;;;8.50;;
12224;SDS011;6175;50.956;11.064;2022-12-05T07:09:07;10.53;;;8.23;;
12224;SDS011;6175;50.956;11.064;2022-12-05T07:11:36;10.07;;;8.07;;
12224;SDS011;6175;50.956;11.064;2022-12-05T07:14:03;11.07;;;9.03;;
12224;SDS011;6175;50.956;11.064;2022-12-05T07:16:31;11.30;;;9.17;;
12224;SDS011;6175;50.956;11.064;2022-12-05T07:18:58;11.47;;;8.90;;
12224;SDS011;6175;50.956;11.064;2022-12-05T07:21:25;11.87;;;9.50;;
12224;SDS011;6175;50.956;11.064;2022-12-05T07:23:54;10.07;;;8.87;;
12224;SDS011;6175;50.956;11.064;2022-12-05T07:26:22;10.93;;;8.50;;
12224;SDS011;6175;50.956;11.064;2022-12-05T07:28:50;11.37;;;8.93;;
12224;SDS011;6175;50.956;11.064;2022-12-05T07:31:18;13.10;;;10.43;;
12224;SDS011;6175;50.956;11.064;2022-12-05T07:33:46;14.50;;;11.17;;
12224;SDS011;6175;50.956;11.064;2022-12-05T07:36:14;12.87;;;10.30;;
12224;SDS011;6175;50.956;11.064;2022-12-05T07:38:43;12.33;;;9.90;;
12224;SDS011;6175;50.956;11.064;2022-12-05T07:41:13;12.47;;;9.80;;
12224;SDS011;6175;50.956;11.064;2022-12-05T07:43:42;11.07;;;9.43;;
12224;SDS011;6175;50.956;11.064;2022-12-05T07:46:10;11.13;;;9.43;;
12224;SDS011;6175;50.956;11.064;2022-12-05T07:48:37;11.97;;;9.30;;
12224;SDS011;6175;50.956;11.064;2022-12-05T07:51:05;12.07;;;9.20;;
12224;SDS011;6175;50.956;11.064;2022-12-05T07:53:34;13.03;;;10.30;;
12224;SDS011;6175;50.956;11.064;2022-12-05T07:56:02;12.13;;;9.67;;
12224;SDS011;6175;50.956;11.064;2022-12-05T07:58:33;12.37;;;9.77;;
12224;SDS011;6175;50.956;11.064;2022-12-05T08:01:04;11.43;;;10.17;;
12224;SDS011;6175;50.956;11.064;2022-12-05T08:03:32;13.00;;;10.17;;
12224;SDS011;6175;50.956;11.064;2022-12-05T08:06:01;11.40;;;9.27;;
12224;SDS011;6175;50.956;11.064;2022-12-05T08:08:28;10.77;;;8.87;;
12224;SDS011;6175;50.956;11.064;2022-12-05T08:10:55;11.77;;;9.67;;
12224;SDS011;6175;50.956;11.064;2022-12-05T08:13:23;11.27;;;8.67;;
12224;SDS011;6175;50.956;11.064;2022-12-05T08:15:51;11.43;;;8.83;;
12224;SDS011;6175;50.956;11.064;2022-12-05T08:18:18;9.63;;;8.57;;
12224;SDS011;6175;50.956;11.064;2022-12-05T08:20:45;13.03;;;9.60;;
12224;SDS011;6175;50.956;11.064;2022-12-05T08:23:12;11.77;;;10.03;;
12224;SDS011;6175;50.956;11.064;2022-12-05T08:25:40;13.53;;;10.17;;
12224;SDS011;6175;50.956;11.064;2022-12-05T08:28:07;13.27;;;10.10;;
12224;SDS011;6175;50.956;11.064;2022-12-05T08:30:34;11.70;;;9.50;;
12224;SDS011;6175;50.956;11.064;2022-12-05T08:33:03;13.37;;;10.80;;
12224;SDS011;6175;50.956;11.064;2022-12-05T08:35:29;13.63;;;10.43;;
12224;SDS011;6175;50.956;11.064;2022-12-05T08:37:57;15.13;;;10.67;;
12224;SDS011;6175;50.956;11.064;2022-12-05T08:40:24;14.70;;;11.03;;
12224;SDS011;6175;50.956;11.064;2022-12-05T08:42:51;14.67;;;10.83;;
12224;SDS011;6175;50.956;11.064;2022-12-05T08:45:18;15.00;;;11.07;;
12224;SDS011;6175;50.956;11.064;2022-12-05T08:47:45;15.60;;;11.83;;
12224;SDS011;6175;50.956;11.064;2022-12-05T08:50:14;15.17;;;11.30;;
12224;SDS011;6175;50.956;11.064;2022-12-05T08:52:40;15.50;;;11.37;;
12224;SDS011;6175;50.956;11.064;2022-12-05T08:55:08;16.83;;;11.70;;
12224;SDS011;6175;50.956;11.064;2022-12-05T08:57:35;15.73;;;12.30;;
12224;SDS011;6175;50.956;11.064;2022-12-05T09:00:02;14.93;;;11.67;;
12224;SDS011;6175;50.956;11.064;2022-12-05T09:02:30;15.40;;;11.43;;
12224;SDS011;6175;50.956;11.064;2022-12-05T09:04:58;19.10;;;13.57;;
12224;SDS011;6175;50.956;11.064;2022-12-05T09:07:26;17.73;;;13.30;;
12224;SDS011;6175;50.956;11.064;2022-12-05T09:09:53;17.83;;;12.80;;
12224;SDS011;6175;50.956;11.064;2022-12-05T09:12:21;17.20;;;12.60;;
12224;SDS011;6175;50.956;11.064;2022-12-05T09:14:48;15.87;;;12.80;;
12224;SDS011;6175;50.956;11.064;2022-12-05T09:17:15;16.30;;;13.00;;
12224;SDS011;6175;50.956;11.064;2022-12-05T09:19:42;16.60;;;13.05;;
12224;SDS011;6175;50.956;11.064;2022-12-05T09:22:10;19.57;;;14.00;;
12224;SDS011;6175;50.956;11.064;2022-12-05T09:24:38;18.50;;;13.40;;
12224;SDS011;6175;50.956;11.064;2022-12-05T09:27:05;17.20;;;12.70;;
12224;SDS011;6175;50.956;11.064;2022-12-05T09:29:32;16.90;;;13.25;;
12224;SDS011;6175;50.956;11.064;2022-12-05T09:31:59;17.73;;;12.77;;
12224;SDS011;6175;50.956;11.064;2022-12-05T09:34:26;15.20;;;11.83;;
12224;SDS011;6175;50.956;11.064;2022-12-05T09:36:54;16.77;;;11.93;;
12224;SDS011;6175;50.956;11.064;2022-12-05T09:39:22;19.35;;;13.38;;
12224;SDS011;6175;50.956;11.064;2022-12-05T09:41:58;15.52;;;13.07;;
12224;SDS011;6175;50.956;11.064;2022-12-05T09:44:41;16.63;;;12.52;;
12224;SDS011;6175;50.956;11.064;2022-12-05T09:47:16;15.50;;;11.63;;
12224;SDS011;6175;50.956;11.064;2022-12-05T09:49:54;15.67;;;12.07;;
12224;SDS011;6175;50.956;11.064;2022-12-05T09:52:27;15.03;;;11.83;;
12224;SDS011;6175;50.956;11.064;2022-12-05T09:54:56;16.37;;;12.23;;
12224;SDS011;6175;50.956;11.064;2022-12-05T09:57:32;14.48;;;11.05;;
12224;SDS011;6175;50.956;11.064;2022-12-05T10:00:03;14.30;;;11.27;;
12224;SDS011;6175;50.956;11.064;2022-12-05T10:02:35;13.87;;;11.03;;
12224;SDS011;6175;50.956;11.064;2022-12-05T10:05:13;12.83;;;10.67;;
12224;SDS011;6175;50.956;11.064;2022-12-05T10:07:46;13.25;;;11.13;;
12224;SDS011;6175;50.956;11.064;2022-12-05T10:10:25;13.97;;;11.20;;
12224;SDS011;6175;50.956;11.064;2022-12-05T10:13:03;12.10;;;9.90;;
12224;SDS011;6175;50.956;11.064;2022-12-05T10:15:43;13.65;;;10.32;;
12224;SDS011;6175;50.956;11.064;2022-12-05T10:18:14;12.03;;;10.13;;
12224;SDS011;6175;50.956;11.064;2022-12-05T10:20:53;11.88;;;10.05;;
12224;SDS011;6175;50.956;11.064;2022-12-05T10:23:25;14.30;;;11.68;;
12224;SDS011;6175;50.956;11.064;2022-12-05T10:25:55;16.63;;;12.63;;
12224;SDS011;6175;50.956;11.064;2022-12-05T10:28:27;15.17;;;11.70;;
12224;SDS011;6175;50.956;11.064;2022-12-05T10:30:59;14.20;;;11.20;;
12224;SDS011;6175;50.956;11.064;2022-12-05T10:33:32;13.32;;;11.40;;
12224;SDS011;6175;50.956;11.064;2022-12-05T10:36:05;12.98;;;11.43;;
12224;SDS011;6175;50.956;11.064;2022-12-05T10:38:35;15.00;;;11.60;;
12224;SDS011;6175;50.956;11.064;2022-12-05T10:41:03;14.63;;;12.07;;
12224;SDS011;6175;50.956;11.064;2022-12-05T10:43:35;15.52;;;12.25;;
12224;SDS011;6175;50.956;11.064;2022-12-05T10:46:04;13.95;;;11.30;;
12224;SDS011;6175;50.956;11.064;2022-12-05T10:48:33;14.13;;;11.20;;
12224;SDS011;6175;50.956;11.064;2022-12-05T10:51:02;13.73;;;10.40;;
12224;SDS011;6175;50.956;11.064;2022-12-05T10:53:31;13.03;;;11.10;;
12224;SDS011;6175;50.956;11.064;2022-12-05T10:56:05;11.23;;;9.80;;
12224;SDS011;6175;50.956;11.064;2022-12-05T10:59:08;12.77;;;10.13;;
12224;SDS011;6175;50.956;11.064;2022-12-05T11:01:36;13.83;;;10.73;;
12224;SDS011;6175;50.956;11.064;2022-12-05T11:04:11;15.80;;;12.53;;
12224;SDS011;6175;50.956;11.064;2022-12-05T11:06:49;13.88;;;11.15;;
12224;SDS011;6175;50.956;11.064;2022-12-05T11:09:20;13.95;;;10.93;;
12224;SDS011;6175;50.956;11.064;2022-12-05T11:15:18;14.05;;;11.23;;
12224;SDS011;6175;50.956;11.064;2022-12-05T11:17:49;11.98;;;9.73;;
12224;SDS011;6175;50.956;11.064;2022-12-05T11:20:37;13.07;;;10.97;;
12224;SDS011;6175;50.956;11.064;2022-12-05T11:23:25;15.68;;;11.45;;
12224;SDS011;6175;50.956;11.064;2022-12-05T11:25:53;12.38;;;10.38;;
12224;SDS011;6175;50.956;11.064;2022-12-05T11:28:28;12.23;;;10.85;;
12224;SDS011;6175;50.956;11.064;2022-12-05T11:31:02;15.32;;;11.63;;
12224;SDS011;6175;50.956;11.064;2022-12-05T11:33:33;12.85;;;11.15;;
12224;SDS011;6175;50.956;11.064;2022-12-05T11:36:05;12.82;;;10.20;;
12224;SDS011;6175;50.956;11.064;2022-12-05T11:38:38;14.60;;;11.60;;
12224;SDS011;6175;50.956;11.064;2022-12-05T11:41:10;14.43;;;11.63;;
12224;SDS011;6175;50.956;11.064;2022-12-05T11:46:54;13.93;;;11.18;;
12224;SDS011;6175;50.956;11.064;2022-12-05T11:49:35;12.73;;;11.15;;
12224;SDS011;6175;50.956;11.064;2022-12-05T11:52:11;12.95;;;10.52;;
12224;SDS011;6175;50.956;11.064;2022-12-05T11:54:53;12.95;;;11.20;;
12224;SDS011;6175;50.956;11.064;2022-12-05T11:57:27;15.60;;;11.98;;
12224;SDS011;6175;50.956;11.064;2022-12-05T12:00:13;15.05;;;11.93;;
12224;SDS011;6175;50.956;11.064;2022-12-05T12:05:37;12.15;;;9.85;;
12224;SDS011;6175;50.956;11.064;2022-12-05T12:08:12;11.38;;;9.95;;
12224;SDS011;6175;50.956;11.064;2022-12-05T12:10:49;10.70;;;9.15;;
12224;SDS011;6175;50.956;11.064;2022-12-05T12:13:27;10.88;;;9.77;;
12224;SDS011;6175;50.956;11.064;2022-12-05T12:16:04;10.43;;;8.70;;
12224;SDS011;6175;50.956;11.064;2022-12-05T12:24:30;12.90;;;10.32;;
12224;SDS011;6175;50.956;11.064;2022-12-05T12:27:12;11.40;;;9.33;;
12224;SDS011;6175;50.956;11.064;2022-12-05T12:29:49;11.27;;;9.50;;
12224;SDS011;6175;50.956;11.064;2022-12-05T12:32:29;10.93;;;9.27;;
12224;SDS011;6175;50.956;11.064;2022-12-05T12:35:16;11.45;;;9.57;;
12224;SDS011;6175;50.956;11.064;2022-12-05T12:37:57;12.00;;;9.40;;
12224;SDS011;6175;50.956;11.064;2022-12-05T12:40:42;13.40;;;10.03;;
12224;SDS011;6175;50.956;11.064;2022-12-05T12:43:16;11.87;;;9.60;;
12224;SDS011;6175;50.956;11.064;2022-12-05T12:46:13;10.85;;;9.02;;
12224;SDS011;6175;50.956;11.064;2022-12-05T12:48:57;9.90;;;8.73;;
12224;SDS011;6175;50.956;11.064;2022-12-05T12:51:33;11.00;;;8.77;;
12224;SDS011;6175;50.956;11.064;2022-12-05T12:54:11;13.18;;;9.40;;
12224;SDS011;6175;50.956;11.064;2022-12-05T12:57:05;10.75;;;8.73;;
12224;SDS011;6175;50.956;11.064;2022-12-05T12:59:41;11.02;;;9.93;;
12224;SDS011;6175;50.956;11.064;2022-12-05T13:02:18;12.48;;;9.10;;
12224;SDS011;6175;50.956;11.064;2022-12-05T13:04:52;11.73;;;9.43;;
12224;SDS011;6175;50.956;11.064;2022-12-05T13:07:24;10.33;;;8.90;;
12224;SDS011;6175;50.956;11.064;2022-12-05T13:09:57;14.50;;;10.77;;
12224;SDS011;6175;50.956;11.064;2022-12-05T13:12:28;15.13;;;10.90;;
12224;SDS011;6175;50.956;11.064;2022-12-05T13:15:02;15.50;;;10.80;;
12224;SDS011;6175;50.956;11.064;2022-12-05T13:17:32;14.00;;;11.53;;
12224;SDS011;6175;50.956;11.064;2022-12-05T13:19:59;11.80;;;10.50;;
12224;SDS011;6175;50.956;11.064;2022-12-05T13:22:27;12.47;;;10.13;;
12224;SDS011;6175;50.956;11.064;2022-12-05T13:24:56;14.37;;;11.20;;
12224;SDS011;6175;50.956;11.064;2022-12-05T13:27:24;12.13;;;9.67;;
12224;SDS011;6175;50.956;11.064;2022-12-05T13:29:53;11.87;;;9.47;;
12224;SDS011;6175;50.956;11.064;2022-12-05T13:32:23;12.10;;;9.93;;
12224;SDS011;6175;50.956;11.064;2022-12-05T13:34:53;11.40;;;9.40;;
12224;SDS011;6175;50.956;11.064;2022-12-05T13:37:22;11.80;;;9.27;;
12224;SDS011;6175;50.956;11.064;2022-12-05T13:40:19;12.55;;;9.32;;
12224;SDS011;6175;50.956;11.064;2022-12-05T13:43:11;10.38;;;8.43;;
12224;SDS011;6175;50.956;11.064;2022-12-05T13:45:40;11.00;;;8.40;;
12224;SDS011;6175;50.956;11.064;2022-12-05T13:48:19;10.30;;;8.67;;
12224;SDS011;6175;50.956;11.064;2022-12-05T13:50:51;9.63;;;8.63;;
12224;SDS011;6175;50.956;11.064;2022-12-05T13:53:26;9.57;;;8.57;;
12224;SDS011;6175;50.956;11.064;2022-12-05T13:55:59;11.70;;;8.77;;
12224;SDS011;6175;50.956;11.064;2022-12-05T14:01:40;12.03;;;9.83;;
12224;SDS011;6175;50.956;11.064;2022-12-05T14:04:22;11.23;;;9.87;;
12224;SDS011;6175;50.956;11.064;2022-12-05T14:07:11;12.77;;;10.80;;
12224;SDS011;6175;50.956;11.064;2022-12-05T14:10:04;13.00;;;10.77;;
12224;SDS011;6175;50.956;11.064;2022-12-05T14:12:51;12.77;;;10.63;;
12224;SDS011;6175;50.956;11.064;2022-12-05T14:18:12;10.83;;;9.37;;
12224;SDS011;6175;50.956;11.064;2022-12-05T14:23:42;9.80;;;8.53;;
12224;SDS011;6175;50.956;11.064;2022-12-05T14:26:28;9.38;;;8.38;;
12224;SDS011;6175;50.956;11.064;2022-12-05T14:29:13;9.67;;;8.63;;
12224;SDS011;6175;50.956;11.064;2022-12-05T14:31:56;10.73;;;8.73;;
12224;SDS011;6175;50.956;11.064;2022-12-05T14:34:32;11.10;;;9.40;;
12224;SDS011;6175;50.956;11.064;2022-12-05T14:37:02;10.47;;;9.20;;
12224;SDS011;6175;50.956;11.064;2022-12-05T14:39:36;12.07;;;9.83;;
12224;SDS011;6175;50.956;11.064;2022-12-05T14:42:07;11.77;;;9.93;;
12224;SDS011;6175;50.956;11.064;2022-12-05T14:44:48;14.20;;;11.20;;
12224;SDS011;6175;50.956;11.064;2022-12-05T14:47:17;13.47;;;11.40;;
12224;SDS011;6175;50.956;11.064;2022-12-05T14:49:54;12.73;;;10.00;;
12224;SDS011;6175;50.956;11.064;2022-12-05T14:52:26;13.77;;;10.50;;
12224;SDS011;6175;50.956;11.064;2022-12-05T14:54:57;13.13;;;10.98;;
12224;SDS011;6175;50.956;11.064;2022-12-05T14:57:27;16.17;;;13.50;;
12224;SDS011;6175;50.956;11.064;2022-12-05T14:59:58;16.67;;;13.50;;
12224;SDS011;6175;50.956;11.064;2022-12-05T15:02:28;17.97;;;13.27;;
12224;SDS011;6175;50.956;11.064;2022-12-05T15:04:58;18.23;;;14.40;;
12224;SDS011;6175;50.956;11.064;2022-12-05T15:07:30;18.13;;;14.97;;
12224;SDS011;6175;50.956;11.064;2022-12-05T15:10:01;20.03;;;15.70;;
12224;SDS011;6175;50.956;11.064;2022-12-05T15:12:32;43.73;;;28.57;;
12224;SDS011;6175;50.956;11.064;2022-12-05T15:17:51;35.07;;;23.23;;
12224;SDS011;6175;50.956;11.064;2022-12-05T15:20:25;31.50;;;21.37;;